Time;durP1;ratioP1;P1;durP2;ratioP2;P2;SDS_P1;SDS_P2;PMS_P1;PMS_P2;Temp;Humidity;BMP_temperature;BMP_pressure;BME280_temperature;BME280_humidity;BME280_pressure;Samples;Min_cycle;Max_cycle;Signal;HPM_P1;HPM_P2
2023/11/16 06:00:42;;;;;;;5.32;1.65;;;9.20;76.80;;;;;;4727987;23;20467;-76
2023/11/16 06:02:44;;;;;;;6.13;1.63;;;9.30;76.80;;;;;;4084846;29;20047;-76
2023/11/16 06:04:45;;;;;;;4.25;1.48;;;9.20;76.70;;;;;;4085759;29;20416;-78
2023/11/16 06:06:47;;;;;;;7.15;1.67;;;9.30;76.70;;;;;;4085404;29;20110;-78
2023/11/16 06:08:49;;;;;;;11.30;1.83;;;9.20;76.60;;;;;;4085466;29;20051;-78
2023/11/16 06:10:51;;;;;;;5.47;1.70;;;9.30;76.60;;;;;;4085586;29;20094;-76
2023/11/16 06:12:55;;;;;;;10.07;1.90;;;9.30;76.80;;;;;;4085752;29;20091;-79
2023/11/16 06:14:57;;;;;;;4.90;1.48;;;9.30;76.80;;;;;;4085890;29;20126;-76
2023/11/16 06:17:00;;;;;;;6.40;1.80;;;9.30;77.60;;;;;;4085823;29;20394;-78
2023/11/16 06:19:04;;;;;;;5.25;1.42;;;9.30;76.70;;;;;;4085778;29;20087;-76
2023/11/16 06:21:06;;;;;;;5.53;1.40;;;9.30;76.70;;;;;;4086190;29;20472;-77
2023/11/16 06:23:08;;;;;;;5.95;1.80;;;9.30;77.10;;;;;;4085464;29;20136;-77
2023/11/16 06:25:11;;;;;;;6.65;1.67;;;9.30;77.20;;;;;;4085781;29;20076;-79
2023/11/16 06:27:13;;;;;;;6.03;1.95;;;9.30;77.40;;;;;;4069822;29;20150;-77
2023/11/16 06:29:15;;;;;;;5.28;1.70;;;9.30;77.30;;;;;;4069519;29;20059;-77
2023/11/16 06:31:19;;;;;;;5.90;1.75;;;9.30;77.50;;;;;;4069881;29;20044;-77
2023/11/16 06:33:21;;;;;;;5.53;1.88;;;9.20;78.00;;;;;;4070007;29;20048;-78
2023/11/16 06:35:23;;;;;;;5.65;1.85;;;9.20;77.90;;;;;;4069946;29;20493;-78
2023/11/16 06:37:25;;;;;;;5.47;1.75;;;9.20;77.90;;;;;;4070074;29;20044;-76
2023/11/16 06:39:28;;;;;;;7.25;2.03;;;9.20;77.50;;;;;;4070077;29;20048;-75
2023/11/16 06:41:30;;;;;;;5.03;1.60;;;9.20;78.10;;;;;;4069843;29;20050;-77
2023/11/16 06:43:32;;;;;;;4.90;1.60;;;9.20;78.30;;;;;;4069741;29;20048;-80
2023/11/16 06:45:39;;;;;;;6.13;2.10;;;9.20;78.50;;;;;;4069960;29;20080;-75
2023/11/16 06:47:41;;;;;;;7.32;2.03;;;9.20;78.60;;;;;;4069966;29;20048;-77
2023/11/16 06:49:47;;;;;;;5.47;1.45;;;9.10;78.40;;;;;;4079578;29;20055;-76
2023/11/16 06:51:48;;;;;;;6.90;1.73;;;9.10;78.80;;;;;;4085668;29;20486;-78
2023/11/16 06:53:50;;;;;;;5.30;1.50;;;9.10;78.80;;;;;;4085941;29;20104;-80
2023/11/16 06:55:52;;;;;;;5.50;1.48;;;9.10;78.70;;;;;;4085245;29;20055;-79
2023/11/16 06:57:54;;;;;;;8.10;1.65;;;9.10;79.00;;;;;;4085619;29;20052;-77
2023/11/16 06:59:57;;;;;;;7.63;1.52;;;9.10;79.00;;;;;;4085167;29;20106;-78
2023/11/16 07:01:59;;;;;;;6.13;1.85;;;9.10;78.90;;;;;;4084785;29;20058;-80
2023/11/16 07:04:01;;;;;;;6.68;1.90;;;9.10;78.50;;;;;;4085021;29;20047;-77
2023/11/16 07:06:06;;;;;;;9.13;1.80;;;9.10;77.70;;;;;;4085443;29;20449;-79
2023/11/16 07:08:07;;;;;;;7.65;1.58;;;9.10;77.60;;;;;;4086159;29;20047;-78
2023/11/16 07:10:09;;;;;;;7.88;1.80;;;9.00;77.60;;;;;;4085782;29;20056;-78
2023/11/16 07:12:12;;;;;;;5.55;2.20;;;9.00;77.80;;;;;;4085707;29;20058;-77
2023/11/16 07:14:14;;;;;;;8.77;2.10;;;9.00;78.00;;;;;;4084990;29;20079;-77
2023/11/16 07:16:15;;;;;;;7.40;1.58;;;9.00;78.30;;;;;;4084947;29;20047;-77
2023/11/16 07:18:19;;;;;;;6.97;1.70;;;9.00;78.40;;;;;;4085409;29;20107;-78
2023/11/16 07:20:21;;;;;;;6.00;1.83;;;9.00;78.50;;;;;;4085015;29;20052;-78
2023/11/16 07:22:25;;;;;;;4.85;1.40;;;9.10;78.30;;;;;;4085284;29;20130;-79
2023/11/16 07:24:27;;;;;;;7.22;1.90;;;9.10;77.80;;;;;;4085327;29;20481;-77
2023/11/16 07:26:28;;;;;;;4.18;1.58;;;9.10;78.40;;;;;;4085003;29;20056;-78
2023/11/16 07:28:32;;;;;;;7.82;2.00;;;9.10;78.30;;;;;;4084521;29;20048;-77
2023/11/16 07:30:35;;;;;;;7.28;2.30;;;9.10;78.00;;;;;;4085089;29;20055;-76
2023/11/16 07:32:36;;;;;;;6.78;2.00;;;9.10;77.50;;;;;;4084666;29;20166;-79
2023/11/16 07:34:39;;;;;;;6.75;2.20;;;9.20;77.30;;;;;;4084471;29;20047;-77
2023/11/16 07:36:41;;;;;;;3.90;1.52;;;9.20;77.20;;;;;;4085368;29;20098;-80
2023/11/16 07:38:44;;;;;;;6.63;1.88;;;9.20;76.50;;;;;;4085819;29;20054;-79
2023/11/16 07:40:46;;;;;;;5.93;1.35;;;9.20;76.50;;;;;;4084209;29;20481;-77
2023/11/16 07:42:48;;;;;;;7.45;2.00;;;9.30;76.50;;;;;;4084406;29;20048;-79
2023/11/16 07:44:50;;;;;;;10.15;4.25;;;9.30;76.10;;;;;;4084420;29;20044;-78
2023/11/16 07:46:52;;;;;;;6.72;2.28;;;9.30;76.00;;;;;;4084537;29;20056;-78
2023/11/16 07:48:53;;;;;;;6.07;1.80;;;9.30;76.30;;;;;;4084704;29;20059;-77
2023/11/16 07:50:56;;;;;;;6.38;1.90;;;9.40;76.80;;;;;;4085048;29;20047;-79
2023/11/16 07:52:59;;;;;;;5.88;1.63;;;9.40;77.10;;;;;;4084371;29;20069;-78
2023/11/16 07:55:02;;;;;;;5.53;1.60;;;9.40;77.00;;;;;;4084694;29;20052;-77
2023/11/16 07:57:05;;;;;;;4.35;1.38;;;9.40;76.30;;;;;;4084566;29;20052;-78
2023/11/16 07:59:14;;;;;;;5.78;1.50;;;9.50;75.90;;;;;;4084252;29;20044;-78
2023/11/16 08:01:17;;;;;;;6.20;1.67;;;9.50;75.70;;;;;;4084638;29;20511;-79
2023/11/16 08:05:41;;;;;;;4.80;1.40;;;9.50;75.80;;;;;;4084569;29;20059;-76
2023/11/16 08:07:42;;;;;;;6.00;1.75;;;9.50;76.10;;;;;;4084459;29;20063;-79
2023/11/16 08:09:46;;;;;;;3.53;1.35;;;9.40;76.10;;;;;;4084466;29;20147;-80
2023/11/16 08:11:53;;;;;;;6.68;1.67;;;9.40;76.20;;;;;;4084254;29;20059;-78
2023/11/16 08:13:57;;;;;;;7.30;1.73;;;9.50;76.30;;;;;;4084694;29;20051;-79
2023/11/16 08:15:59;;;;;;;7.30;1.85;;;9.50;76.70;;;;;;4084176;29;20043;-79
2023/11/16 08:18:01;;;;;;;5.28;1.75;;;9.50;76.90;;;;;;4084404;29;20051;-76
2023/11/16 08:20:03;;;;;;;5.07;1.58;;;9.50;76.90;;;;;;4084301;29;20048;-77
2023/11/16 08:22:05;;;;;;;5.90;1.50;;;9.50;76.60;;;;;;4085099;29;20047;-78
2023/11/16 08:24:10;;;;;;;8.35;1.77;;;9.50;76.60;;;;;;4084870;29;20130;-76
2023/11/16 08:26:13;;;;;;;5.32;1.48;;;9.50;76.70;;;;;;4084301;29;20079;-76
2023/11/16 08:28:16;;;;;;;4.25;1.20;;;9.60;75.80;;;;;;4084372;29;20098;-76
2023/11/16 08:30:19;;;;;;;4.65;1.55;;;9.60;75.50;;;;;;4084410;29;20055;-77
2023/11/16 08:32:21;;;;;;;9.88;3.78;;;9.60;75.50;;;;;;4084587;29;20051;-77
2023/11/16 08:34:26;;;;;;;8.18;1.88;;;9.60;75.30;;;;;;4084043;29;20054;-76
2023/11/16 08:36:28;;;;;;;5.10;1.75;;;9.70;75.70;;;;;;4084408;29;20059;-78
2023/11/16 08:38:31;;;;;;;4.50;1.50;;;9.70;75.40;;;;;;4084641;29;20052;-77
2023/11/16 08:40:33;;;;;;;5.32;1.60;;;9.80;75.00;;;;;;4084511;29;20055;-77
2023/11/16 08:42:41;;;;;;;4.82;1.70;;;9.80;74.90;;;;;;4084364;29;20481;-78
2023/11/16 08:44:44;;;;;;;5.95;1.50;;;9.80;74.60;;;;;;4084072;29;20099;-79
2023/11/16 08:46:56;;;;;;;7.35;1.67;;;9.80;74.60;;;;;;4084290;29;20051;-77
2023/11/16 08:48:59;;;;;;;7.65;1.50;;;9.80;74.40;;;;;;4084559;29;20087;-77
2023/11/16 08:51:03;;;;;;;5.65;1.77;;;9.90;74.60;;;;;;4084567;29;20054;-77
2023/11/16 08:53:07;;;;;;;4.75;1.65;;;9.90;75.30;;;;;;4086994;29;20413;-78
2023/11/16 08:55:11;;;;;;;6.72;1.92;;;9.90;75.60;;;;;;4087066;29;20058;-77
2023/11/16 08:57:13;;;;;;;6.82;1.65;;;9.90;76.20;;;;;;4087253;29;20048;-77
2023/11/16 08:59:16;;;;;;;6.43;2.00;;;9.90;77.10;;;;;;4086974;29;20059;-75
2023/11/16 09:01:19;;;;;;;8.93;2.50;;;9.90;77.90;;;;;;4086794;29;20520;-76
2023/11/16 09:03:21;;;;;;;7.20;2.42;;;9.90;77.30;;;;;;4086896;29;20051;-75
2023/11/16 09:05:24;;;;;;;6.13;2.30;;;9.90;77.10;;;;;;4087212;29;20054;-79
2023/11/16 09:07:28;;;;;;;6.55;2.28;;;10.00;76.80;;;;;;4086891;29;20047;-78
2023/11/16 09:09:35;;;;;;;7.55;2.35;;;9.90;76.90;;;;;;4087712;29;20468;-77
2023/11/16 09:11:37;;;;;;;14.23;2.67;;;10.00;77.30;;;;;;4087776;29;20493;-75
2023/11/16 09:13:41;;;;;;;7.63;2.45;;;10.00;77.40;;;;;;4086893;29;20055;-79
2023/11/16 09:15:42;;;;;;;5.85;2.20;;;10.00;77.00;;;;;;4087456;29;20050;-76
2023/11/16 09:17:45;;;;;;;7.07;2.17;;;10.00;77.10;;;;;;4099699;29;20051;-79
2023/11/16 09:19:50;;;;;;;7.95;2.40;;;10.10;77.10;;;;;;4089519;29;20052;-76
2023/11/16 09:21:51;;;;;;;7.18;2.60;;;10.10;76.80;;;;;;4091907;29;20048;-76
2023/11/16 09:23:54;;;;;;;5.32;2.33;;;10.10;76.70;;;;;;4095250;29;20080;-79
2023/11/16 09:25:57;;;;;;;6.28;2.40;;;10.10;76.40;;;;;;4092452;29;20056;-77
2023/11/16 09:28:00;;;;;;;8.00;2.55;;;10.10;76.60;;;;;;4098364;29;20048;-75
2023/11/16 09:30:04;;;;;;;6.22;2.20;;;10.20;76.70;;;;;;4097168;29;20048;-79
2023/11/16 09:32:10;;;;;;;7.30;2.50;;;10.10;76.90;;;;;;4091681;29;20071;-74
2023/11/16 09:34:16;;;;;;;7.75;2.80;;;10.20;76.90;;;;;;4090404;29;20103;-81
2023/11/16 09:36:18;;;;;;;7.03;2.72;;;10.20;77.20;;;;;;4096281;29;20063;-78
2023/11/16 09:38:20;;;;;;;8.68;3.60;;;10.20;77.10;;;;;;4099287;29;20086;-76
2023/11/16 09:40:28;;;;;;;8.68;3.63;;;10.20;77.90;;;;;;4097661;29;20047;-77
2023/11/16 09:42:31;;;;;;;8.32;3.75;;;10.30;78.10;;;;;;4094397;29;20047;-79
2023/11/16 09:44:34;;;;;;;9.68;4.00;;;10.30;78.40;;;;;;4087038;29;20473;-78
2023/11/16 09:46:39;;;;;;;9.95;4.45;;;10.10;79.00;;;;;;4086949;29;20051;-76
2023/11/16 09:48:41;;;;;;;10.15;5.20;;;10.00;79.70;;;;;;4086888;29;20181;-78
2023/11/16 09:50:48;;;;;;;15.88;6.70;;;10.00;79.50;;;;;;4086670;29;20051;-78
2023/11/16 09:52:51;;;;;;;20.90;9.65;;;9.80;80.30;;;;;;4087931;29;20500;-76
2023/11/16 09:55:00;;;;;;;20.48;8.73;;;9.80;80.30;;;;;;4086499;29;20059;-79
2023/11/16 09:57:02;;;;;;;16.33;8.00;;;9.80;80.40;;;;;;4085954;29;20079;-77
2023/11/16 09:59:13;;;;;;;17.85;8.65;;;9.80;80.00;;;;;;4087136;29;20457;-77
2023/11/16 10:01:15;;;;;;;17.63;7.65;;;9.80;80.00;;;;;;4086118;29;20059;-77
2023/11/16 10:03:25;;;;;;;13.10;7.03;;;9.90;80.10;;;;;;4085794;29;20433;-76
2023/11/16 10:05:34;;;;;;;14.00;7.28;;;10.00;79.40;;;;;;4086577;29;20055;-77
2023/11/16 10:07:38;;;;;;;20.15;7.90;;;10.10;78.80;;;;;;4086092;29;20059;-78
2023/11/16 10:09:44;;;;;;;16.10;7.22;;;10.20;78.40;;;;;;4086257;29;20540;-77
2023/11/16 10:11:46;;;;;;;14.85;7.55;;;10.00;78.80;;;;;;4086241;29;20094;-77
2023/11/16 10:13:53;;;;;;;13.82;7.05;;;10.10;78.70;;;;;;4085778;29;20047;-78
2023/11/16 10:16:02;;;;;;;14.60;6.45;;;10.20;78.40;;;;;;4086243;29;20082;-77
2023/11/16 10:18:09;;;;;;;14.02;6.38;;;10.10;77.90;;;;;;4086960;29;20433;-77
2023/11/16 10:20:11;;;;;;;14.02;6.50;;;10.00;78.20;;;;;;4086411;29;20055;-76
2023/11/16 10:22:13;;;;;;;13.52;7.05;;;9.90;77.80;;;;;;4085877;29;20126;-77
2023/11/16 10:24:20;;;;;;;14.65;7.78;;;10.00;78.30;;;;;;4073858;29;20059;-75
2023/11/16 10:26:22;;;;;;;18.13;8.38;;;10.10;78.50;;;;;;4068574;29;20032;-79
2023/11/16 10:28:24;;;;;;;17.75;7.85;;;10.00;78.20;;;;;;4068084;29;20338;-77
2023/11/16 10:30:25;;;;;;;14.77;6.95;;;9.90;78.00;;;;;;4066484;29;20466;-79
2023/11/16 10:32:29;;;;;;;14.27;6.45;;;9.80;78.40;;;;;;4068492;29;20052;-77
2023/11/16 10:34:32;;;;;;;15.82;7.25;;;9.90;78.60;;;;;;4067874;29;20055;-77
2023/11/16 10:36:37;;;;;;;17.15;7.05;;;10.10;78.50;;;;;;4067881;29;20052;-77
2023/11/16 10:38:39;;;;;;;16.77;6.68;;;10.20;78.30;;;;;;4068261;29;20059;-78
2023/11/16 10:40:44;;;;;;;12.05;6.53;;;10.20;77.50;;;;;;4067616;29;20163;-78
2023/11/16 10:42:46;;;;;;;12.57;5.93;;;10.30;77.30;;;;;;4067861;29;20115;-77
2023/11/16 10:44:48;;;;;;;13.70;6.25;;;10.30;77.50;;;;;;4068108;29;20112;-76
2023/11/16 10:46:51;;;;;;;11.02;6.15;;;10.40;77.30;;;;;;4067495;29;20083;-77
2023/11/16 10:48:53;;;;;;;19.05;6.45;;;10.40;77.40;;;;;;4067364;29;20044;-78
2023/11/16 10:50:59;;;;;;;11.88;5.80;;;10.40;77.20;;;;;;4073388;29;20052;-77
2023/11/16 10:53:02;;;;;;;;;;;10.40;76.70;;;;;;4074172;29;20559;-77
2023/11/16 10:55:13;;;;;;;12.05;5.72;;;10.50;76.50;;;;;;4067675;29;19934;-78
2023/11/16 10:57:17;;;;;;;22.67;11.38;;;10.50;76.50;;;;;;4067147;29;20103;-79
2023/11/16 10:59:21;;;;;;;12.55;6.30;;;10.50;76.70;;;;;;4067045;29;20558;-78
2023/11/16 11:01:24;;;;;;;13.13;5.65;;;10.50;76.10;;;;;;4067209;29;20063;-78
2023/11/16 11:03:27;;;;;;;10.02;4.88;;;10.50;76.10;;;;;;4080428;29;20111;-78
2023/11/16 11:05:32;;;;;;;11.10;4.50;;;10.50;75.40;;;;;;4083010;29;20142;-78
2023/11/16 11:07:47;;;;;;;8.55;3.00;;;10.50;75.30;;;;;;4082756;29;20486;-77
2023/11/16 11:09:51;;;;;;;10.52;3.38;;;10.60;74.30;;;;;;4082433;29;20055;-78
2023/11/16 11:11:53;;;;;;;8.98;2.97;;;10.60;74.10;;;;;;4082305;29;20485;-77
2023/11/16 11:13:57;;;;;;;7.50;2.85;;;10.60;71.90;;;;;;4082123;29;20074;-78
2023/11/16 11:16:05;;;;;;;6.05;2.40;;;10.60;72.00;;;;;;4082959;29;20486;-78
2023/11/16 11:18:08;;;;;;;6.18;1.70;;;10.60;70.90;;;;;;4082646;29;20101;-76
2023/11/16 11:20:12;;;;;;;6.40;1.77;;;10.60;69.90;;;;;;4082639;29;20525;-78
2023/11/16 11:22:16;;;;;;;6.50;2.25;;;10.60;70.40;;;;;;4082902;29;20484;-78
2023/11/16 11:24:17;;;;;;;7.65;1.83;;;10.70;70.70;;;;;;4082502;29;20134;-77
2023/11/16 11:26:19;;;;;;;6.05;2.08;;;10.70;70.20;;;;;;4082667;29;20062;-77
2023/11/16 11:28:22;;;;;;;9.77;1.95;;;10.80;70.00;;;;;;4082852;29;20052;-77
2023/11/16 11:30:24;;;;;;;7.25;1.58;;;10.90;69.30;;;;;;4080388;29;20339;-79
2023/11/16 11:32:36;;;;;;;4.28;1.35;;;10.90;68.50;;;;;;4082792;29;20074;-78
2023/11/16 11:34:39;;;;;;;4.88;1.60;;;11.00;68.60;;;;;;4082904;29;20568;-79
2023/11/16 11:36:41;;;;;;;7.40;2.10;;;11.10;68.10;;;;;;4082548;29;20056;-78
2023/11/16 11:38:44;;;;;;;7.90;2.72;;;11.10;68.20;;;;;;4082754;29;20051;-77
2023/11/16 11:40:52;;;;;;;17.17;7.90;;;11.10;68.20;;;;;;4082701;29;20505;-78
2023/11/16 11:42:54;;;;;;;9.30;2.40;;;11.00;68.00;;;;;;4082404;29;20059;-78
2023/11/16 11:44:56;;;;;;;6.40;1.60;;;11.10;67.30;;;;;;4082654;29;20126;-78
2023/11/16 11:46:59;;;;;;;4.82;1.30;;;11.20;66.90;;;;;;4083353;29;20098;-79
2023/11/16 11:49:00;;;;;;;7.05;1.40;;;11.20;66.30;;;;;;4084969;29;20048;-77
2023/11/16 11:51:06;;;;;;;9.80;1.70;;;11.20;67.30;;;;;;4084181;29;20071;-77
2023/11/16 11:53:12;;;;;;;5.00;1.10;;;11.20;66.40;;;;;;4083965;29;20055;-78
2023/11/16 11:55:14;;;;;;;7.55;1.38;;;11.20;66.50;;;;;;4082771;29;20055;-78
2023/11/16 11:57:16;;;;;;;6.70;1.58;;;11.20;66.20;;;;;;4083820;29;20134;-78
2023/11/16 11:59:20;;;;;;;8.20;2.05;;;11.30;66.80;;;;;;4082210;29;20540;-78
2023/11/16 12:01:23;;;;;;;6.47;1.35;;;11.30;66.80;;;;;;4082194;29;20118;-77
2023/11/16 12:03:27;;;;;;;6.50;1.40;;;11.30;66.40;;;;;;4082271;29;20410;-78
2023/11/16 12:05:29;;;;;;;6.90;1.63;;;11.30;66.70;;;;;;4082442;29;20424;-78
2023/11/16 12:07:32;;;;;;;6.57;1.50;;;11.30;66.60;;;;;;4082289;29;20056;-79
2023/11/16 12:09:34;;;;;;;7.68;1.50;;;11.30;66.80;;;;;;4082163;29;20056;-78
2023/11/16 12:11:36;;;;;;;5.28;1.10;;;11.40;67.30;;;;;;4082298;29;20056;-79
2023/11/16 12:13:38;;;;;;;6.93;1.70;;;11.40;67.50;;;;;;4082749;29;20055;-79
2023/11/16 12:15:42;;;;;;;4.72;1.40;;;11.30;66.30;;;;;;4082472;29;20060;-79
2023/11/16 12:17:46;;;;;;;6.18;1.30;;;11.30;65.80;;;;;;4082471;29;20458;-79
2023/11/16 12:19:49;;;;;;;4.80;1.33;;;11.40;65.50;;;;;;4082491;29;20055;-79
2023/11/16 12:21:51;;;;;;;4.50;1.27;;;11.40;65.00;;;;;;4082333;29;20126;-80
2023/11/16 12:23:55;;;;;;;6.93;1.48;;;11.40;65.10;;;;;;4082526;29;20095;-81
2023/11/16 12:26:00;;;;;;;6.50;1.35;;;11.40;64.90;;;;;;4083861;29;20052;-78
2023/11/16 12:28:04;;;;;;;7.20;1.80;;;11.50;66.10;;;;;;4085671;29;20048;-79
2023/11/16 12:30:07;;;;;;;5.90;1.60;;;11.30;65.90;;;;;;4085410;29;20055;-78
2023/11/16 12:32:09;;;;;;;7.28;1.67;;;11.40;66.30;;;;;;4083508;29;20478;-78
2023/11/16 12:34:12;;;;;;;6.05;1.35;;;11.40;65.60;;;;;;4085222;29;20064;-78
2023/11/16 12:36:18;;;;;;;9.55;1.70;;;11.40;64.20;;;;;;4084778;29;20052;-78
2023/11/16 12:38:21;;;;;;;7.20;1.80;;;11.30;65.60;;;;;;4085264;29;20106;-80
2023/11/16 12:40:23;;;;;;;7.68;1.77;;;11.30;65.70;;;;;;4085205;29;20051;-77
2023/11/16 12:42:26;;;;;;;4.68;1.45;;;11.40;66.00;;;;;;4085298;29;20056;-80
2023/11/16 12:44:28;;;;;;;7.75;1.65;;;11.40;66.00;;;;;;4085403;29;20560;-80
2023/11/16 12:46:29;;;;;;;7.63;1.80;;;11.30;65.10;;;;;;4084837;29;20055;-79
2023/11/16 12:48:31;;;;;;;6.93;1.83;;;11.30;65.60;;;;;;4084848;29;20047;-78
2023/11/16 12:50:33;;;;;;;6.53;1.30;;;11.30;65.50;;;;;;4085029;29;20055;-78
2023/11/16 12:52:38;;;;;;;6.40;1.38;;;11.30;64.70;;;;;;4085178;29;20055;-81
2023/11/16 12:54:40;;;;;;;6.18;1.60;;;11.40;65.00;;;;;;4085053;29;20142;-78
2023/11/16 12:56:42;;;;;;;11.02;4.72;;;11.40;64.10;;;;;;4084961;29;20062;-80
2023/11/16 12:58:44;;;;;;;10.73;2.65;;;11.30;63.90;;;;;;4084978;29;20561;-78
2023/11/16 13:00:49;;;;;;;7.60;2.88;;;11.30;64.60;;;;;;4084476;29;20056;-80
2023/11/16 13:02:51;;;;;;;7.93;1.83;;;11.30;65.80;;;;;;4084934;29;20052;-77
2023/11/16 13:04:53;;;;;;;6.32;1.52;;;11.30;64.70;;;;;;4085690;29;20059;-79
2023/11/16 13:06:57;;;;;;;4.50;1.17;;;11.30;64.70;;;;;;4084866;29;20047;-79
2023/11/16 13:09:00;;;;;;;9.57;1.80;;;11.30;64.90;;;;;;4084840;29;20417;-78
2023/11/16 13:11:01;;;;;;;5.18;1.40;;;11.30;64.60;;;;;;4084552;29;20461;-78
2023/11/16 13:13:03;;;;;;;4.47;1.40;;;11.30;64.20;;;;;;4084848;29;20047;-80
2023/11/16 13:15:07;;;;;;;5.15;1.73;;;11.30;65.00;;;;;;4084760;29;20413;-79
2023/11/16 13:17:09;;;;;;;4.93;1.60;;;11.30;65.50;;;;;;4084638;29;20063;-79
2023/11/16 13:19:11;;;;;;;4.68;1.40;;;11.20;65.90;;;;;;4084882;29;20105;-78
2023/11/16 13:21:13;;;;;;;6.22;1.30;;;11.30;67.30;;;;;;4084671;29;20410;-78
2023/11/16 13:23:16;;;;;;;5.18;1.30;;;11.20;68.70;;;;;;4084369;29;20098;-79
2023/11/16 13:25:20;;;;;;;5.95;1.45;;;11.20;70.70;;;;;;4084526;29;20055;-76
2023/11/16 13:27:22;;;;;;;5.53;1.55;;;11.20;71.50;;;;;;4084357;29;20083;-79
2023/11/16 13:29:24;;;;;;;5.22;1.60;;;11.20;71.30;;;;;;4089938;29;20571;-79
2023/11/16 13:31:25;;;;;;;6.25;1.50;;;11.20;71.60;;;;;;4098286;29;20559;-76
2023/11/16 13:33:27;;;;;;;5.88;1.42;;;11.20;72.70;;;;;;4100461;29;20054;-78
2023/11/16 13:35:29;;;;;;;7.70;1.52;;;11.20;72.40;;;;;;4099786;29;20110;-80
2023/11/16 13:37:31;;;;;;;8.18;2.03;;;11.20;72.70;;;;;;4099525;28;20091;-78
2023/11/16 13:39:33;;;;;;;7.90;2.10;;;11.20;72.50;;;;;;4100190;29;20055;-81
2023/11/16 13:41:37;;;;;;;8.38;2.55;;;11.10;73.60;;;;;;4100233;29;20118;-79
2023/11/16 13:43:38;;;;;;;9.93;3.00;;;11.10;74.40;;;;;;4100351;29;20055;-76
2023/11/16 13:45:42;;;;;;;8.25;2.83;;;11.10;74.90;;;;;;4100202;29;20047;-77
2023/11/16 13:47:43;;;;;;;9.70;3.55;;;11.00;76.60;;;;;;4100878;29;20058;-78
2023/11/16 13:49:45;;;;;;;8.70;3.40;;;11.00;77.20;;;;;;4099672;29;20055;-79
2023/11/16 13:51:48;;;;;;;8.70;3.53;;;11.00;77.80;;;;;;4100043;29;20081;-77
2023/11/16 13:53:49;;;;;;;11.07;4.00;;;11.00;79.00;;;;;;4100184;29;20051;-77
2023/11/16 13:55:51;;;;;;;10.95;3.60;;;10.90;78.40;;;;;;4100503;29;20102;-77
2023/11/16 13:57:54;;;;;;;8.98;3.13;;;11.00;78.40;;;;;;4100951;29;20078;-77
2023/11/16 13:59:55;;;;;;;8.20;3.00;;;10.90;78.60;;;;;;4100718;29;20047;-76
2023/11/16 14:01:56;;;;;;;9.88;2.67;;;10.90;78.70;;;;;;4097805;29;20122;-79
2023/11/16 14:03:58;;;;;;;8.38;2.45;;;10.90;79.90;;;;;;4083774;29;20231;-77
2023/11/16 14:06:03;;;;;;;10.00;2.42;;;10.90;80.30;;;;;;4083877;29;20051;-79
2023/11/16 14:08:06;;;;;;;6.90;2.10;;;10.90;80.70;;;;;;4083657;29;20052;-78
2023/11/16 14:10:09;;;;;;;6.70;1.80;;;10.80;79.80;;;;;;4083752;29;20052;-78
2023/11/16 14:12:11;;;;;;;8.57;2.00;;;10.80;79.40;;;;;;4083448;29;20131;-77
2023/11/16 14:14:14;;;;;;;4.93;1.67;;;10.80;79.60;;;;;;4083626;29;20055;-79
2023/11/16 14:16:16;;;;;;;6.93;2.13;;;10.80;79.50;;;;;;4083528;29;20056;-79
2023/11/16 14:18:18;;;;;;;7.25;2.28;;;10.70;79.80;;;;;;4083843;29;20538;-78
2023/11/16 14:20:20;;;;;;;6.63;2.30;;;10.70;79.70;;;;;;4083579;29;20174;-78
2023/11/16 14:22:21;;;;;;;6.82;2.40;;;10.70;79.50;;;;;;4083479;29;20051;-78
2023/11/16 14:24:23;;;;;;;6.57;2.38;;;10.70;80.00;;;;;;4083749;29;20059;-79
2023/11/16 14:26:25;;;;;;;6.40;2.47;;;10.70;80.30;;;;;;4083926;29;20465;-80
2023/11/16 14:28:26;;;;;;;5.97;2.20;;;10.70;79.80;;;;;;4083301;29;20055;-79
2023/11/16 14:30:29;;;;;;;6.57;2.40;;;10.70;80.20;;;;;;4081569;29;20106;-79
2023/11/16 14:32:31;;;;;;;7.78;2.30;;;10.70;80.60;;;;;;4083364;29;20110;-79
2023/11/16 14:34:33;;;;;;;5.38;2.10;;;10.70;80.80;;;;;;4083545;29;20453;-78
2023/11/16 14:36:35;;;;;;;7.55;2.47;;;10.60;80.80;;;;;;4082920;29;20048;-80
2023/11/16 14:38:37;;;;;;;7.28;2.55;;;10.60;80.60;;;;;;4083391;29;20111;-79
2023/11/16 14:40:38;;;;;;;7.75;2.53;;;10.60;80.50;;;;;;4083277;29;20063;-79
2023/11/16 14:42:40;;;;;;;5.82;2.55;;;10.60;80.50;;;;;;4083762;29;20457;-79
2023/11/16 14:44:43;;;;;;;7.82;2.30;;;10.40;80.40;;;;;;4084273;29;20111;-79
2023/11/16 14:46:47;;;;;;;4.85;1.73;;;10.40;80.70;;;;;;4083581;29;20145;-78
2023/11/16 14:48:49;;;;;;;5.35;1.90;;;10.40;80.40;;;;;;4082708;29;20453;-79
2023/11/16 14:50:50;;;;;;;7.13;1.67;;;10.50;80.20;;;;;;4082883;29;20051;-78
2023/11/16 14:52:52;;;;;;;6.82;2.10;;;10.50;80.20;;;;;;4082720;29;20044;-77
2023/11/16 14:54:53;;;;;;;7.05;2.30;;;10.40;79.80;;;;;;4084024;29;20671;-78
2023/11/16 14:56:55;;;;;;;6.22;2.15;;;10.40;79.80;;;;;;4083180;29;20142;-79
2023/11/16 14:58:58;;;;;;;5.90;2.05;;;10.40;79.80;;;;;;4083478;29;20047;-78
2023/11/16 15:01:00;;;;;;;7.07;2.40;;;10.40;80.10;;;;;;4083333;29;20556;-76
2023/11/16 15:03:04;;;;;;;7.05;1.88;;;10.30;80.00;;;;;;4083408;29;20099;-79
2023/11/16 15:05:07;;;;;;;4.03;1.80;;;10.40;80.10;;;;;;4083704;29;20051;-78
2023/11/16 15:07:09;;;;;;;7.93;2.08;;;10.30;79.90;;;;;;4082076;29;20489;-78
2023/11/16 15:09:13;;;;;;;6.18;2.47;;;10.40;80.20;;;;;;4082986;29;20048;-80
2023/11/16 15:11:15;;;;;;;6.03;2.17;;;10.40;80.60;;;;;;4082144;29;20055;-79
2023/11/16 15:13:17;;;;;;;6.30;2.80;;;10.40;80.80;;;;;;4083138;29;20067;-79
2023/11/16 15:15:18;;;;;;;9.32;3.28;;;10.30;81.40;;;;;;4083339;29;20549;-80
2023/11/16 15:17:21;;;;;;;8.50;3.08;;;10.20;82.70;;;;;;4083288;29;20126;-79
2023/11/16 15:19:30;;;;;;;7.78;2.92;;;10.30;86.10;;;;;;4083973;29;20051;-78
2023/11/16 15:21:32;;;;;;;8.77;2.70;;;10.30;84.10;;;;;;4078853;29;20183;-78
2023/11/16 15:23:35;;;;;;;6.15;2.28;;;10.30;83.00;;;;;;4082046;29;20126;-76
2023/11/16 15:25:37;;;;;;;7.13;1.85;;;10.30;82.50;;;;;;4082813;29;20061;-79
2023/11/16 15:27:39;;;;;;;4.95;1.80;;;10.10;83.10;;;;;;4083141;29;20561;-78
2023/11/16 15:29:40;;;;;;;6.68;1.63;;;10.10;83.50;;;;;;4083645;29;20059;-78
2023/11/16 15:31:43;;;;;;;4.90;1.63;;;10.20;83.10;;;;;;4080874;29;20107;-78
2023/11/16 15:33:45;;;;;;;8.20;3.72;;;10.20;83.00;;;;;;4083967;29;20054;-78
2023/11/16 15:35:48;;;;;;;5.72;1.60;;;10.20;83.20;;;;;;4084435;29;20426;-80
2023/11/16 15:37:56;;;;;;;4.90;1.60;;;10.00;84.00;;;;;;4082865;29;20047;-79
2023/11/16 15:40:00;;;;;;;5.25;1.52;;;9.90;83.90;;;;;;4083655;29;20134;-78
2023/11/16 15:42:04;;;;;;;5.63;1.40;;;9.80;84.50;;;;;;4083437;29;20059;-78
2023/11/16 15:44:06;;;;;;;4.35;1.45;;;9.80;84.50;;;;;;4083219;29;20050;-78
2023/11/16 15:46:09;;;;;;;5.63;1.40;;;9.90;84.20;;;;;;4082613;29;20402;-79
2023/11/16 15:48:11;;;;;;;3.85;1.50;;;9.90;83.80;;;;;;4077534;29;20048;-78
2023/11/16 15:50:15;;;;;;;4.72;1.45;;;9.90;84.30;;;;;;4082046;29;20486;-79
2023/11/16 15:52:19;;;;;;;5.28;1.35;;;9.90;84.20;;;;;;4074898;29;20213;-78
2023/11/16 15:54:21;;;;;;;4.90;1.65;;;9.90;83.70;;;;;;4071996;29;20052;-78
2023/11/16 15:56:24;;;;;;;6.68;1.70;;;9.80;84.30;;;;;;4080946;29;20056;-77
2023/11/16 15:58:26;;;;;;;5.95;1.35;;;9.80;84.40;;;;;;4079463;29;20119;-78
2023/11/16 16:00:28;;;;;;;4.15;1.58;;;9.60;86.00;;;;;;4071666;29;20108;-79
2023/11/16 16:02:29;;;;;;;4.22;1.42;;;9.70;85.70;;;;;;4082761;29;20052;-79
2023/11/16 16:04:32;;;;;;;6.47;1.50;;;9.70;84.70;;;;;;4083922;29;20154;-79
2023/11/16 16:06:34;;;;;;;4.97;1.60;;;9.70;84.60;;;;;;4084825;29;20052;-80
2023/11/16 16:08:37;;;;;;;5.05;1.42;;;9.80;84.70;;;;;;4083907;29;20059;-77
2023/11/16 16:10:38;;;;;;;4.03;1.50;;;9.80;84.70;;;;;;4085576;29;20060;-79
2023/11/16 16:12:40;;;;;;;5.15;1.45;;;9.80;84.40;;;;;;4077818;29;20521;-77
2023/11/16 16:14:43;;;;;;;3.95;1.55;;;9.80;83.70;;;;;;4085498;29;20047;-78
2023/11/16 16:16:45;;;;;;;3.97;1.52;;;9.90;83.60;;;;;;4082692;29;20055;-77
2023/11/16 16:18:47;;;;;;;6.28;1.45;;;9.90;83.60;;;;;;4077892;29;20067;-77
2023/11/16 16:20:49;;;;;;;6.55;1.67;;;9.80;83.30;;;;;;4084789;29;20044;-78
2023/11/16 16:22:50;;;;;;;5.28;1.75;;;9.80;83.10;;;;;;4083793;29;20075;-78
2023/11/16 16:24:54;;;;;;;3.97;1.55;;;9.80;83.10;;;;;;4084250;29;20047;-77
2023/11/16 16:26:55;;;;;;;4.55;1.73;;;9.80;83.20;;;;;;4081369;29;20044;-78
2023/11/16 16:28:57;;;;;;;4.97;1.90;;;9.70;81.80;;;;;;4089005;29;20062;-77
2023/11/16 16:30:59;;;;;;;4.07;1.60;;;9.70;81.70;;;;;;4098582;29;20413;-84
2023/11/16 16:33:00;;;;;;;3.38;1.50;;;9.60;81.60;;;;;;4081812;29;20051;-76
2023/11/16 16:35:03;;;;;;;5.03;1.73;;;9.60;82.20;;;;;;4085112;29;20513;-76
2023/11/16 16:37:04;;;;;;;3.70;1.60;;;9.60;82.20;;;;;;4085144;29;20091;-79
2023/11/16 16:39:07;;;;;;;4.30;1.90;;;9.70;82.40;;;;;;4088258;29;20143;-77
2023/11/16 16:41:10;;;;;;;3.83;1.60;;;9.70;82.80;;;;;;4087756;29;20090;-79
2023/11/16 16:43:11;;;;;;;4.22;1.60;;;9.80;82.80;;;;;;4083142;29;20057;-77
2023/11/16 16:45:14;;;;;;;4.05;1.30;;;9.70;82.70;;;;;;4091950;29;20084;-78